sensor_id;sensor_type;location;lat;lon;timestamp;temperature;humidity
13982;DHT22;7065;50.880;5.502;2024-01-30T00:01:23;8.40;99.90
13982;DHT22;7065;50.880;5.502;2024-01-30T00:03:48;8.40;99.90
13982;DHT22;7065;50.880;5.502;2024-01-30T00:06:18;8.40;99.90
13982;DHT22;7065;50.880;5.502;2024-01-30T00:08:45;8.40;99.90
13982;DHT22;7065;50.880;5.502;2024-01-30T00:11:14;8.30;99.90
13982;DHT22;7065;50.880;5.502;2024-01-30T00:13:40;8.30;99.90
13982;DHT22;7065;50.880;5.502;2024-01-30T00:16:07;8.30;99.90
13982;DHT22;7065;50.880;5.502;2024-01-30T00:18:32;8.30;99.90
13982;DHT22;7065;50.880;5.502;2024-01-30T00:20:58;8.20;99.90
13982;DHT22;7065;50.880;5.502;2024-01-30T00:23:24;8.20;99.90
13982;DHT22;7065;50.880;5.502;2024-01-30T00:25:50;8.20;99.90
13982;DHT22;7065;50.880;5.502;2024-01-30T00:28:16;8.20;99.90
13982;DHT22;7065;50.880;5.502;2024-01-30T00:30:42;8.20;99.90
13982;DHT22;7065;50.880;5.502;2024-01-30T00:33:09;8.20;99.90
13982;DHT22;7065;50.880;5.502;2024-01-30T00:35:34;8.20;99.90
13982;DHT22;7065;50.880;5.502;2024-01-30T00:38:00;8.20;99.90
13982;DHT22;7065;50.880;5.502;2024-01-30T00:40:26;8.30;99.90
13982;DHT22;7065;50.880;5.502;2024-01-30T00:42:52;8.30;99.90
13982;DHT22;7065;50.880;5.502;2024-01-30T00:45:18;8.30;99.90
13982;DHT22;7065;50.880;5.502;2024-01-30T00:47:44;8.30;99.90
13982;DHT22;7065;50.880;5.502;2024-01-30T00:50:11;8.30;99.90
13982;DHT22;7065;50.880;5.502;2024-01-30T00:52:37;8.40;99.90
13982;DHT22;7065;50.880;5.502;2024-01-30T00:55:05;8.40;99.90
13982;DHT22;7065;50.880;5.502;2024-01-30T00:57:30;8.40;99.90
13982;DHT22;7065;50.880;5.502;2024-01-30T00:59:57;8.40;99.90
13982;DHT22;7065;50.880;5.502;2024-01-30T01:02:22;8.50;99.90
13982;DHT22;7065;50.880;5.502;2024-01-30T01:04:48;8.50;99.90
13982;DHT22;7065;50.880;5.502;2024-01-30T01:07:14;8.40;99.90
13982;DHT22;7065;50.880;5.502;2024-01-30T01:09:40;8.40;99.90
13982;DHT22;7065;50.880;5.502;2024-01-30T01:12:06;8.40;99.90
13982;DHT22;7065;50.880;5.502;2024-01-30T01:14:32;8.40;99.90
13982;DHT22;7065;50.880;5.502;2024-01-30T01:16:57;8.40;99.90
13982;DHT22;7065;50.880;5.502;2024-01-30T01:19:23;8.30;99.90
13982;DHT22;7065;50.880;5.502;2024-01-30T01:21:49;8.30;99.90
13982;DHT22;7065;50.880;5.502;2024-01-30T01:24:15;8.30;99.90
13982;DHT22;7065;50.880;5.502;2024-01-30T01:26:41;8.30;99.90
13982;DHT22;7065;50.880;5.502;2024-01-30T01:29:06;8.30;99.90
13982;DHT22;7065;50.880;5.502;2024-01-30T01:31:37;8.30;99.90
13982;DHT22;7065;50.880;5.502;2024-01-30T01:34:12;8.20;99.90
13982;DHT22;7065;50.880;5.502;2024-01-30T01:36:39;8.20;99.90
13982;DHT22;7065;50.880;5.502;2024-01-30T01:39:05;8.20;99.90
13982;DHT22;7065;50.880;5.502;2024-01-30T01:41:34;8.20;99.90
13982;DHT22;7065;50.880;5.502;2024-01-30T01:43:59;8.30;99.90
13982;DHT22;7065;50.880;5.502;2024-01-30T01:46:30;8.30;99.90
13982;DHT22;7065;50.880;5.502;2024-01-30T01:49:00;8.30;99.90
13982;DHT22;7065;50.880;5.502;2024-01-30T01:51:28;8.40;99.90
13982;DHT22;7065;50.880;5.502;2024-01-30T01:53:55;8.40;99.90
13982;DHT22;7065;50.880;5.502;2024-01-30T01:56:26;8.40;99.90
13982;DHT22;7065;50.880;5.502;2024-01-30T01:58:55;8.40;99.90
13982;DHT22;7065;50.880;5.502;2024-01-30T02:01:23;8.30;99.90
13982;DHT22;7065;50.880;5.502;2024-01-30T02:03:50;8.30;99.90
13982;DHT22;7065;50.880;5.502;2024-01-30T02:06:16;8.30;99.90
13982;DHT22;7065;50.880;5.502;2024-01-30T02:08:42;8.40;99.90
13982;DHT22;7065;50.880;5.502;2024-01-30T02:11:08;8.40;99.90
13982;DHT22;7065;50.880;5.502;2024-01-30T02:13:36;8.50;99.90
13982;DHT22;7065;50.880;5.502;2024-01-30T02:16:01;8.50;99.90
13982;DHT22;7065;50.880;5.502;2024-01-30T02:18:27;8.50;99.90
13982;DHT22;7065;50.880;5.502;2024-01-30T02:20:54;8.50;99.90
13982;DHT22;7065;50.880;5.502;2024-01-30T02:23:23;8.50;99.90
13982;DHT22;7065;50.880;5.502;2024-01-30T02:25:50;8.60;99.90
13982;DHT22;7065;50.880;5.502;2024-01-30T02:28:19;8.60;99.90
13982;DHT22;7065;50.880;5.502;2024-01-30T02:30:46;8.60;99.90
13982;DHT22;7065;50.880;5.502;2024-01-30T02:33:12;8.60;99.90
13982;DHT22;7065;50.880;5.502;2024-01-30T02:35:38;8.60;99.90
13982;DHT22;7065;50.880;5.502;2024-01-30T02:38:04;8.60;99.90
13982;DHT22;7065;50.880;5.502;2024-01-30T02:40:30;8.60;99.90
13982;DHT22;7065;50.880;5.502;2024-01-30T02:42:58;8.60;99.90
13982;DHT22;7065;50.880;5.502;2024-01-30T02:45:24;8.60;99.90
13982;DHT22;7065;50.880;5.502;2024-01-30T02:47:50;8.60;99.90
13982;DHT22;7065;50.880;5.502;2024-01-30T02:50:16;8.60;99.90
13982;DHT22;7065;50.880;5.502;2024-01-30T02:52:42;8.60;99.90
13982;DHT22;7065;50.880;5.502;2024-01-30T02:55:09;8.60;99.90
13982;DHT22;7065;50.880;5.502;2024-01-30T02:57:35;8.60;99.90
13982;DHT22;7065;50.880;5.502;2024-01-30T03:00:01;8.60;99.90
13982;DHT22;7065;50.880;5.502;2024-01-30T03:02:26;8.60;99.90
13982;DHT22;7065;50.880;5.502;2024-01-30T03:04:52;8.60;99.90
13982;DHT22;7065;50.880;5.502;2024-01-30T03:07:17;8.60;99.90
13982;DHT22;7065;50.880;5.502;2024-01-30T03:09:44;8.60;99.90
13982;DHT22;7065;50.880;5.502;2024-01-30T03:12:10;8.60;99.90
13982;DHT22;7065;50.880;5.502;2024-01-30T03:14:35;8.60;99.90
13982;DHT22;7065;50.880;5.502;2024-01-30T03:17:01;8.60;99.90
13982;DHT22;7065;50.880;5.502;2024-01-30T03:19:27;8.60;99.90
13982;DHT22;7065;50.880;5.502;2024-01-30T03:21:53;8.60;99.90
13982;DHT22;7065;50.880;5.502;2024-01-30T03:24:18;8.70;99.90
13982;DHT22;7065;50.880;5.502;2024-01-30T03:26:44;8.70;99.90
13982;DHT22;7065;50.880;5.502;2024-01-30T03:29:10;8.80;99.90
13982;DHT22;7065;50.880;5.502;2024-01-30T03:31:35;8.80;99.90
13982;DHT22;7065;50.880;5.502;2024-01-30T03:34:01;8.80;99.90
13982;DHT22;7065;50.880;5.502;2024-01-30T03:36:27;8.90;99.90
13982;DHT22;7065;50.880;5.502;2024-01-30T03:38:53;9.00;99.90
13982;DHT22;7065;50.880;5.502;2024-01-30T03:41:19;9.00;99.90
13982;DHT22;7065;50.880;5.502;2024-01-30T03:43:45;9.10;99.90
13982;DHT22;7065;50.880;5.502;2024-01-30T03:46:12;9.00;99.90
13982;DHT22;7065;50.880;5.502;2024-01-30T03:48:38;9.00;99.90
13982;DHT22;7065;50.880;5.502;2024-01-30T03:51:05;9.00;99.90
13982;DHT22;7065;50.880;5.502;2024-01-30T03:53:31;9.00;99.90
13982;DHT22;7065;50.880;5.502;2024-01-30T03:55:56;9.00;99.90
13982;DHT22;7065;50.880;5.502;2024-01-30T03:58:22;9.10;99.90
13982;DHT22;7065;50.880;5.502;2024-01-30T04:00:48;9.10;99.90
13982;DHT22;7065;50.880;5.502;2024-01-30T04:03:17;9.00;99.90
13982;DHT22;7065;50.880;5.502;2024-01-30T04:05:43;9.00;99.90
13982;DHT22;7065;50.880;5.502;2024-01-30T04:08:09;9.10;99.90
13982;DHT22;7065;50.880;5.502;2024-01-30T04:10:35;9.00;99.90
13982;DHT22;7065;50.880;5.502;2024-01-30T04:13:00;9.00;99.90
13982;DHT22;7065;50.880;5.502;2024-01-30T04:15:26;9.00;99.90
13982;DHT22;7065;50.880;5.502;2024-01-30T04:17:53;8.90;99.90
13982;DHT22;7065;50.880;5.502;2024-01-30T04:20:19;8.90;99.90
13982;DHT22;7065;50.880;5.502;2024-01-30T04:22:45;8.90;99.90
13982;DHT22;7065;50.880;5.502;2024-01-30T04:25:12;8.90;99.90
13982;DHT22;7065;50.880;5.502;2024-01-30T04:27:38;9.00;99.90
13982;DHT22;7065;50.880;5.502;2024-01-30T04:30:04;8.90;99.90
13982;DHT22;7065;50.880;5.502;2024-01-30T04:32:30;8.90;99.90
13982;DHT22;7065;50.880;5.502;2024-01-30T04:34:56;8.90;99.90
13982;DHT22;7065;50.880;5.502;2024-01-30T04:37:21;8.90;99.90
13982;DHT22;7065;50.880;5.502;2024-01-30T04:39:47;8.90;99.90
13982;DHT22;7065;50.880;5.502;2024-01-30T04:42:13;8.90;99.90
13982;DHT22;7065;50.880;5.502;2024-01-30T04:44:39;8.90;99.90
13982;DHT22;7065;50.880;5.502;2024-01-30T04:47:05;8.90;99.90
13982;DHT22;7065;50.880;5.502;2024-01-30T04:49:33;8.90;99.90
13982;DHT22;7065;50.880;5.502;2024-01-30T04:51:59;8.90;99.90
13982;DHT22;7065;50.880;5.502;2024-01-30T04:54:24;8.80;99.90
13982;DHT22;7065;50.880;5.502;2024-01-30T04:56:51;8.80;99.90
13982;DHT22;7065;50.880;5.502;2024-01-30T04:59:16;8.80;99.90
13982;DHT22;7065;50.880;5.502;2024-01-30T05:01:42;8.80;99.90
13982;DHT22;7065;50.880;5.502;2024-01-30T05:04:08;8.90;99.90
13982;DHT22;7065;50.880;5.502;2024-01-30T05:06:34;8.90;99.90
13982;DHT22;7065;50.880;5.502;2024-01-30T05:09:01;8.90;99.90
13982;DHT22;7065;50.880;5.502;2024-01-30T05:11:26;8.90;99.90
13982;DHT22;7065;50.880;5.502;2024-01-30T05:13:52;8.90;99.90
13982;DHT22;7065;50.880;5.502;2024-01-30T05:16:18;8.90;99.90
13982;DHT22;7065;50.880;5.502;2024-01-30T05:18:44;8.90;99.90
13982;DHT22;7065;50.880;5.502;2024-01-30T05:21:10;8.90;99.90
13982;DHT22;7065;50.880;5.502;2024-01-30T05:23:36;8.90;99.90
13982;DHT22;7065;50.880;5.502;2024-01-30T05:26:02;9.00;99.90
13982;DHT22;7065;50.880;5.502;2024-01-30T05:28:31;9.00;99.90
13982;DHT22;7065;50.880;5.502;2024-01-30T05:30:57;9.00;99.90
13982;DHT22;7065;50.880;5.502;2024-01-30T05:33:22;9.10;99.90
13982;DHT22;7065;50.880;5.502;2024-01-30T05:35:48;9.10;99.90
13982;DHT22;7065;50.880;5.502;2024-01-30T05:38:15;9.10;99.90
13982;DHT22;7065;50.880;5.502;2024-01-30T05:40:41;9.10;99.90
13982;DHT22;7065;50.880;5.502;2024-01-30T05:43:07;9.10;99.90
13982;DHT22;7065;50.880;5.502;2024-01-30T05:45:33;9.10;99.90
13982;DHT22;7065;50.880;5.502;2024-01-30T05:48:01;9.10;99.90
13982;DHT22;7065;50.880;5.502;2024-01-30T05:50:27;9.20;99.90
13982;DHT22;7065;50.880;5.502;2024-01-30T05:52:53;9.20;99.90
13982;DHT22;7065;50.880;5.502;2024-01-30T05:55:19;9.20;99.90
13982;DHT22;7065;50.880;5.502;2024-01-30T05:57:44;9.20;99.90
13982;DHT22;7065;50.880;5.502;2024-01-30T06:00:10;9.20;99.90
13982;DHT22;7065;50.880;5.502;2024-01-30T06:02:36;9.20;99.90
13982;DHT22;7065;50.880;5.502;2024-01-30T06:05:02;9.20;99.90
13982;DHT22;7065;50.880;5.502;2024-01-30T06:07:28;9.20;99.90
13982;DHT22;7065;50.880;5.502;2024-01-30T06:09:54;9.20;99.90
13982;DHT22;7065;50.880;5.502;2024-01-30T06:12:21;9.10;99.90
13982;DHT22;7065;50.880;5.502;2024-01-30T06:14:46;9.20;99.90
13982;DHT22;7065;50.880;5.502;2024-01-30T06:17:12;9.20;99.90
13982;DHT22;7065;50.880;5.502;2024-01-30T06:19:38;9.20;99.90
13982;DHT22;7065;50.880;5.502;2024-01-30T06:22:04;9.20;99.90
13982;DHT22;7065;50.880;5.502;2024-01-30T06:24:30;9.30;99.90
13982;DHT22;7065;50.880;5.502;2024-01-30T06:26:56;9.30;99.90
13982;DHT22;7065;50.880;5.502;2024-01-30T06:29:22;9.40;99.90
13982;DHT22;7065;50.880;5.502;2024-01-30T06:31:50;9.40;99.90
13982;DHT22;7065;50.880;5.502;2024-01-30T06:34:16;9.40;99.90
13982;DHT22;7065;50.880;5.502;2024-01-30T06:36:42;9.40;99.90
13982;DHT22;7065;50.880;5.502;2024-01-30T06:39:08;9.50;99.90
13982;DHT22;7065;50.880;5.502;2024-01-30T06:41:35;9.50;99.90
13982;DHT22;7065;50.880;5.502;2024-01-30T06:44:04;9.50;99.90
13982;DHT22;7065;50.880;5.502;2024-01-30T06:46:31;9.60;99.90
13982;DHT22;7065;50.880;5.502;2024-01-30T06:48:58;9.70;99.90
13982;DHT22;7065;50.880;5.502;2024-01-30T06:51:23;9.70;99.90
13982;DHT22;7065;50.880;5.502;2024-01-30T06:53:49;9.60;99.90
13982;DHT22;7065;50.880;5.502;2024-01-30T06:56:15;9.70;99.90
13982;DHT22;7065;50.880;5.502;2024-01-30T06:58:42;9.60;99.90
13982;DHT22;7065;50.880;5.502;2024-01-30T07:01:07;9.60;99.90
13982;DHT22;7065;50.880;5.502;2024-01-30T07:03:33;9.60;99.90
13982;DHT22;7065;50.880;5.502;2024-01-30T07:05:59;9.60;99.90
13982;DHT22;7065;50.880;5.502;2024-01-30T07:08:24;9.70;99.90
13982;DHT22;7065;50.880;5.502;2024-01-30T07:10:51;9.60;99.90
13982;DHT22;7065;50.880;5.502;2024-01-30T07:13:20;9.70;99.90
13982;DHT22;7065;50.880;5.502;2024-01-30T07:15:46;9.70;99.90
13982;DHT22;7065;50.880;5.502;2024-01-30T07:18:11;9.70;99.90
13982;DHT22;7065;50.880;5.502;2024-01-30T07:20:39;9.70;99.90
13982;DHT22;7065;50.880;5.502;2024-01-30T07:23:15;9.70;99.90
13982;DHT22;7065;50.880;5.502;2024-01-30T07:25:46;9.70;99.90
13982;DHT22;7065;50.880;5.502;2024-01-30T07:28:15;9.70;99.90
13982;DHT22;7065;50.880;5.502;2024-01-30T07:30:43;9.80;99.90
13982;DHT22;7065;50.880;5.502;2024-01-30T07:33:09;9.80;99.90
13982;DHT22;7065;50.880;5.502;2024-01-30T07:35:35;9.80;99.90
13982;DHT22;7065;50.880;5.502;2024-01-30T07:38:01;9.80;99.90
13982;DHT22;7065;50.880;5.502;2024-01-30T07:40:27;9.70;99.90
13982;DHT22;7065;50.880;5.502;2024-01-30T07:42:55;9.70;99.90
13982;DHT22;7065;50.880;5.502;2024-01-30T07:45:21;9.70;99.90
13982;DHT22;7065;50.880;5.502;2024-01-30T07:47:51;9.60;99.90
13982;DHT22;7065;50.880;5.502;2024-01-30T07:50:17;9.70;99.90
13982;DHT22;7065;50.880;5.502;2024-01-30T07:52:44;9.70;99.90
13982;DHT22;7065;50.880;5.502;2024-01-30T07:55:10;9.80;99.90
13982;DHT22;7065;50.880;5.502;2024-01-30T07:57:38;9.80;99.90
13982;DHT22;7065;50.880;5.502;2024-01-30T08:00:04;9.80;99.90
13982;DHT22;7065;50.880;5.502;2024-01-30T08:02:31;9.90;99.90
13982;DHT22;7065;50.880;5.502;2024-01-30T08:04:56;9.80;99.90
13982;DHT22;7065;50.880;5.502;2024-01-30T08:07:22;9.90;99.90
13982;DHT22;7065;50.880;5.502;2024-01-30T08:09:48;9.90;99.90
13982;DHT22;7065;50.880;5.502;2024-01-30T08:12:14;9.90;99.90
13982;DHT22;7065;50.880;5.502;2024-01-30T08:14:39;9.90;99.90
13982;DHT22;7065;50.880;5.502;2024-01-30T08:17:06;9.90;99.90
13982;DHT22;7065;50.880;5.502;2024-01-30T08:19:33;9.90;99.90
13982;DHT22;7065;50.880;5.502;2024-01-30T08:21:58;9.90;99.90
13982;DHT22;7065;50.880;5.502;2024-01-30T08:24:24;9.90;99.90
13982;DHT22;7065;50.880;5.502;2024-01-30T08:26:50;9.90;99.90
13982;DHT22;7065;50.880;5.502;2024-01-30T08:29:16;9.90;99.90
13982;DHT22;7065;50.880;5.502;2024-01-30T08:31:41;9.90;99.90
13982;DHT22;7065;50.880;5.502;2024-01-30T08:34:07;9.90;99.90
13982;DHT22;7065;50.880;5.502;2024-01-30T08:36:33;9.90;99.90
13982;DHT22;7065;50.880;5.502;2024-01-30T08:38:58;10.00;99.90
13982;DHT22;7065;50.880;5.502;2024-01-30T08:41:25;10.10;99.90
13982;DHT22;7065;50.880;5.502;2024-01-30T08:43:52;10.00;99.90
13982;DHT22;7065;50.880;5.502;2024-01-30T08:46:18;10.10;99.90
13982;DHT22;7065;50.880;5.502;2024-01-30T08:48:44;10.10;99.90
13982;DHT22;7065;50.880;5.502;2024-01-30T08:51:10;10.20;99.90
13982;DHT22;7065;50.880;5.502;2024-01-30T08:53:36;10.20;99.90
13982;DHT22;7065;50.880;5.502;2024-01-30T08:56:03;10.20;99.90
13982;DHT22;7065;50.880;5.502;2024-01-30T08:58:29;10.30;99.90
13982;DHT22;7065;50.880;5.502;2024-01-30T09:00:54;10.30;99.90
13982;DHT22;7065;50.880;5.502;2024-01-30T09:03:20;10.40;99.90
13982;DHT22;7065;50.880;5.502;2024-01-30T09:05:46;10.50;99.90
13982;DHT22;7065;50.880;5.502;2024-01-30T09:08:11;10.50;99.90
13982;DHT22;7065;50.880;5.502;2024-01-30T09:10:38;10.60;99.90
13982;DHT22;7065;50.880;5.502;2024-01-30T09:13:03;10.60;99.90
13982;DHT22;7065;50.880;5.502;2024-01-30T09:15:29;10.70;99.90
13982;DHT22;7065;50.880;5.502;2024-01-30T09:17:55;10.70;99.90
13982;DHT22;7065;50.880;5.502;2024-01-30T09:20:20;10.80;99.90
13982;DHT22;7065;50.880;5.502;2024-01-30T09:22:48;10.80;99.90
13982;DHT22;7065;50.880;5.502;2024-01-30T09:25:15;10.90;99.90
13982;DHT22;7065;50.880;5.502;2024-01-30T09:27:40;10.90;99.90
13982;DHT22;7065;50.880;5.502;2024-01-30T09:30:07;10.90;99.90
13982;DHT22;7065;50.880;5.502;2024-01-30T09:32:32;11.00;99.90
13982;DHT22;7065;50.880;5.502;2024-01-30T09:34:58;11.00;99.90
13982;DHT22;7065;50.880;5.502;2024-01-30T09:37:24;11.00;99.90
13982;DHT22;7065;50.880;5.502;2024-01-30T09:39:50;11.10;99.90
13982;DHT22;7065;50.880;5.502;2024-01-30T09:42:34;11.10;99.90
13982;DHT22;7065;50.880;5.502;2024-01-30T09:45:03;11.10;99.90
13982;DHT22;7065;50.880;5.502;2024-01-30T09:47:43;11.10;99.90
13982;DHT22;7065;50.880;5.502;2024-01-30T09:50:10;11.10;99.90
13982;DHT22;7065;50.880;5.502;2024-01-30T09:52:36;11.10;99.90
13982;DHT22;7065;50.880;5.502;2024-01-30T09:55:05;11.10;99.90
13982;DHT22;7065;50.880;5.502;2024-01-30T09:57:31;11.10;99.90
13982;DHT22;7065;50.880;5.502;2024-01-30T09:59:57;11.20;99.90
13982;DHT22;7065;50.880;5.502;2024-01-30T10:02:23;11.20;99.90
13982;DHT22;7065;50.880;5.502;2024-01-30T10:04:50;11.20;99.90
13982;DHT22;7065;50.880;5.502;2024-01-30T10:07:17;11.20;99.90
13982;DHT22;7065;50.880;5.502;2024-01-30T10:09:43;11.20;99.90
13982;DHT22;7065;50.880;5.502;2024-01-30T10:12:12;11.20;99.90
13982;DHT22;7065;50.880;5.502;2024-01-30T10:14:41;11.20;99.90
13982;DHT22;7065;50.880;5.502;2024-01-30T10:17:10;11.30;99.90
13982;DHT22;7065;50.880;5.502;2024-01-30T10:19:36;11.40;99.90
13982;DHT22;7065;50.880;5.502;2024-01-30T10:22:03;11.40;99.90
13982;DHT22;7065;50.880;5.502;2024-01-30T10:24:28;11.40;99.90
13982;DHT22;7065;50.880;5.502;2024-01-30T10:26:57;11.40;99.90
13982;DHT22;7065;50.880;5.502;2024-01-30T10:29:25;11.50;99.90
13982;DHT22;7065;50.880;5.502;2024-01-30T10:32:03;11.50;99.90
13982;DHT22;7065;50.880;5.502;2024-01-30T10:34:30;11.50;99.90
13982;DHT22;7065;50.880;5.502;2024-01-30T10:37:09;11.60;99.90
13982;DHT22;7065;50.880;5.502;2024-01-30T10:39:41;11.70;99.90
13982;DHT22;7065;50.880;5.502;2024-01-30T10:42:20;11.80;99.90
13982;DHT22;7065;50.880;5.502;2024-01-30T10:45:02;11.80;99.90
13982;DHT22;7065;50.880;5.502;2024-01-30T10:47:34;11.80;99.90
13982;DHT22;7065;50.880;5.502;2024-01-30T10:50:02;11.80;99.90
13982;DHT22;7065;50.880;5.502;2024-01-30T10:52:29;11.80;99.90
13982;DHT22;7065;50.880;5.502;2024-01-30T10:54:56;11.70;99.90
13982;DHT22;7065;50.880;5.502;2024-01-30T10:57:26;11.70;99.90
13982;DHT22;7065;50.880;5.502;2024-01-30T10:59:55;11.80;99.90
13982;DHT22;7065;50.880;5.502;2024-01-30T11:02:22;11.80;99.90
13982;DHT22;7065;50.880;5.502;2024-01-30T11:04:49;11.90;99.90
13982;DHT22;7065;50.880;5.502;2024-01-30T11:07:19;11.90;99.90
13982;DHT22;7065;50.880;5.502;2024-01-30T11:09:53;11.80;99.90
13982;DHT22;7065;50.880;5.502;2024-01-30T11:12:26;11.90;99.90
13982;DHT22;7065;50.880;5.502;2024-01-30T11:15:11;11.90;99.90
13982;DHT22;7065;50.880;5.502;2024-01-30T11:20:19;11.80;99.90
13982;DHT22;7065;50.880;5.502;2024-01-30T11:22:46;11.80;99.90
13982;DHT22;7065;50.880;5.502;2024-01-30T11:25:16;11.70;99.90
13982;DHT22;7065;50.880;5.502;2024-01-30T11:27:43;11.70;99.90
13982;DHT22;7065;50.880;5.502;2024-01-30T11:30:09;11.70;99.90
13982;DHT22;7065;50.880;5.502;2024-01-30T11:32:35;11.70;99.90
13982;DHT22;7065;50.880;5.502;2024-01-30T11:35:04;11.70;99.90
13982;DHT22;7065;50.880;5.502;2024-01-30T11:37:31;11.70;99.90
13982;DHT22;7065;50.880;5.502;2024-01-30T11:39:58;11.70;99.90
13982;DHT22;7065;50.880;5.502;2024-01-30T11:42:24;11.60;99.90
13982;DHT22;7065;50.880;5.502;2024-01-30T11:44:53;11.60;99.90
13982;DHT22;7065;50.880;5.502;2024-01-30T11:47:18;11.60;99.90
13982;DHT22;7065;50.880;5.502;2024-01-30T11:49:44;11.60;99.90
13982;DHT22;7065;50.880;5.502;2024-01-30T11:52:10;11.60;99.90
13982;DHT22;7065;50.880;5.502;2024-01-30T11:54:39;11.50;99.90
13982;DHT22;7065;50.880;5.502;2024-01-30T11:57:05;11.50;99.90
13982;DHT22;7065;50.880;5.502;2024-01-30T11:59:31;11.50;99.90
13982;DHT22;7065;50.880;5.502;2024-01-30T12:01:57;11.50;99.90
13982;DHT22;7065;50.880;5.502;2024-01-30T12:04:22;11.50;99.90
13982;DHT22;7065;50.880;5.502;2024-01-30T12:06:51;11.50;99.90
13982;DHT22;7065;50.880;5.502;2024-01-30T12:09:17;11.40;99.90
13982;DHT22;7065;50.880;5.502;2024-01-30T12:11:46;11.50;99.90
13982;DHT22;7065;50.880;5.502;2024-01-30T12:14:13;11.50;99.90
13982;DHT22;7065;50.880;5.502;2024-01-30T12:16:38;11.50;99.90
13982;DHT22;7065;50.880;5.502;2024-01-30T12:19:04;11.40;99.90
13982;DHT22;7065;50.880;5.502;2024-01-30T12:21:30;11.40;99.90
13982;DHT22;7065;50.880;5.502;2024-01-30T12:23:57;11.40;99.90
13982;DHT22;7065;50.880;5.502;2024-01-30T12:26:24;11.40;99.90
13982;DHT22;7065;50.880;5.502;2024-01-30T12:28:57;11.40;99.90
13982;DHT22;7065;50.880;5.502;2024-01-30T12:31:31;11.40;99.90
13982;DHT22;7065;50.880;5.502;2024-01-30T12:33:59;11.40;99.90
13982;DHT22;7065;50.880;5.502;2024-01-30T12:36:25;11.40;99.90
13982;DHT22;7065;50.880;5.502;2024-01-30T12:38:51;11.40;99.90
13982;DHT22;7065;50.880;5.502;2024-01-30T12:41:17;11.40;99.90
13982;DHT22;7065;50.880;5.502;2024-01-30T12:43:44;11.40;99.90
13982;DHT22;7065;50.880;5.502;2024-01-30T12:46:09;11.50;99.90
13982;DHT22;7065;50.880;5.502;2024-01-30T12:48:35;11.40;99.90
13982;DHT22;7065;50.880;5.502;2024-01-30T12:51:01;11.40;99.90
13982;DHT22;7065;50.880;5.502;2024-01-30T12:53:27;11.50;99.90
13982;DHT22;7065;50.880;5.502;2024-01-30T12:55:53;11.50;99.90
13982;DHT22;7065;50.880;5.502;2024-01-30T12:58:19;11.50;99.90
13982;DHT22;7065;50.880;5.502;2024-01-30T13:00:45;11.50;99.90
13982;DHT22;7065;50.880;5.502;2024-01-30T13:03:12;11.50;99.90
13982;DHT22;7065;50.880;5.502;2024-01-30T13:05:38;11.60;99.90
13982;DHT22;7065;50.880;5.502;2024-01-30T13:08:04;11.60;99.90
13982;DHT22;7065;50.880;5.502;2024-01-30T13:10:29;11.60;99.90
13982;DHT22;7065;50.880;5.502;2024-01-30T13:12:55;11.60;99.90
13982;DHT22;7065;50.880;5.502;2024-01-30T13:15:21;11.60;99.90
13982;DHT22;7065;50.880;5.502;2024-01-30T13:17:48;11.60;99.90
13982;DHT22;7065;50.880;5.502;2024-01-30T13:20:14;11.60;99.90
13982;DHT22;7065;50.880;5.502;2024-01-30T13:22:44;11.50;99.90
13982;DHT22;7065;50.880;5.502;2024-01-30T13:25:10;11.30;99.90
13982;DHT22;7065;50.880;5.502;2024-01-30T13:27:36;11.20;99.90
13982;DHT22;7065;50.880;5.502;2024-01-30T13:30:03;11.10;99.90
13982;DHT22;7065;50.880;5.502;2024-01-30T13:32:29;11.00;99.90
13982;DHT22;7065;50.880;5.502;2024-01-30T13:34:56;10.90;99.90
13982;DHT22;7065;50.880;5.502;2024-01-30T13:37:22;10.90;99.90
13982;DHT22;7065;50.880;5.502;2024-01-30T13:39:48;10.90;99.90
13982;DHT22;7065;50.880;5.502;2024-01-30T13:42:14;10.90;99.90
13982;DHT22;7065;50.880;5.502;2024-01-30T13:44:40;10.90;99.90
13982;DHT22;7065;50.880;5.502;2024-01-30T13:47:05;10.80;99.90
13982;DHT22;7065;50.880;5.502;2024-01-30T13:49:31;10.80;99.90
13982;DHT22;7065;50.880;5.502;2024-01-30T13:51:57;10.90;99.90
13982;DHT22;7065;50.880;5.502;2024-01-30T13:54:23;10.90;99.90
13982;DHT22;7065;50.880;5.502;2024-01-30T13:56:49;10.80;99.90
13982;DHT22;7065;50.880;5.502;2024-01-30T13:59:15;10.80;99.90
13982;DHT22;7065;50.880;5.502;2024-01-30T14:01:41;10.80;99.90
13982;DHT22;7065;50.880;5.502;2024-01-30T14:04:07;10.80;99.90
13982;DHT22;7065;50.880;5.502;2024-01-30T14:06:33;10.80;99.90
13982;DHT22;7065;50.880;5.502;2024-01-30T14:08:58;10.80;99.90
13982;DHT22;7065;50.880;5.502;2024-01-30T14:11:24;10.70;99.90
13982;DHT22;7065;50.880;5.502;2024-01-30T14:13:50;10.70;99.90
13982;DHT22;7065;50.880;5.502;2024-01-30T14:16:15;10.70;99.90
13982;DHT22;7065;50.880;5.502;2024-01-30T14:18:41;10.70;99.90
13982;DHT22;7065;50.880;5.502;2024-01-30T14:21:07;10.70;99.90
13982;DHT22;7065;50.880;5.502;2024-01-30T14:23:33;10.70;99.90
13982;DHT22;7065;50.880;5.502;2024-01-30T14:25:59;10.70;99.90
13982;DHT22;7065;50.880;5.502;2024-01-30T14:28:25;10.70;99.90
13982;DHT22;7065;50.880;5.502;2024-01-30T14:30:51;10.70;99.90
13982;DHT22;7065;50.880;5.502;2024-01-30T14:33:16;10.70;99.90
13982;DHT22;7065;50.880;5.502;2024-01-30T14:35:42;10.70;99.90
13982;DHT22;7065;50.880;5.502;2024-01-30T14:38:08;10.80;99.90
13982;DHT22;7065;50.880;5.502;2024-01-30T14:40:33;10.70;99.90
13982;DHT22;7065;50.880;5.502;2024-01-30T14:43:00;10.60;99.90
13982;DHT22;7065;50.880;5.502;2024-01-30T14:45:25;10.60;99.90
13982;DHT22;7065;50.880;5.502;2024-01-30T14:47:51;10.60;99.90
13982;DHT22;7065;50.880;5.502;2024-01-30T14:50:18;10.60;99.90
13982;DHT22;7065;50.880;5.502;2024-01-30T14:52:43;10.50;99.90
13982;DHT22;7065;50.880;5.502;2024-01-30T14:55:10;10.50;99.90
13982;DHT22;7065;50.880;5.502;2024-01-30T14:57:35;10.50;99.90
13982;DHT22;7065;50.880;5.502;2024-01-30T15:00:03;10.50;99.90
13982;DHT22;7065;50.880;5.502;2024-01-30T15:02:29;10.60;99.90
13982;DHT22;7065;50.880;5.502;2024-01-30T15:04:55;10.60;99.90
13982;DHT22;7065;50.880;5.502;2024-01-30T15:07:21;10.60;99.90
13982;DHT22;7065;50.880;5.502;2024-01-30T15:09:47;10.60;99.90
13982;DHT22;7065;50.880;5.502;2024-01-30T15:12:13;10.60;99.90
13982;DHT22;7065;50.880;5.502;2024-01-30T15:14:38;10.60;99.90
13982;DHT22;7065;50.880;5.502;2024-01-30T15:17:04;10.60;99.90
13982;DHT22;7065;50.880;5.502;2024-01-30T15:19:30;10.60;99.90
13982;DHT22;7065;50.880;5.502;2024-01-30T15:21:56;10.60;99.90
13982;DHT22;7065;50.880;5.502;2024-01-30T15:24:22;10.60;99.90
13982;DHT22;7065;50.880;5.502;2024-01-30T15:26:50;10.50;99.90
13982;DHT22;7065;50.880;5.502;2024-01-30T15:29:16;10.40;99.90
13982;DHT22;7065;50.880;5.502;2024-01-30T15:31:42;10.40;99.90
13982;DHT22;7065;50.880;5.502;2024-01-30T15:34:08;10.40;99.90
13982;DHT22;7065;50.880;5.502;2024-01-30T15:36:33;10.40;99.90
13982;DHT22;7065;50.880;5.502;2024-01-30T15:38:59;10.40;99.90
13982;DHT22;7065;50.880;5.502;2024-01-30T15:41:25;10.30;99.90
13982;DHT22;7065;50.880;5.502;2024-01-30T15:43:50;10.30;99.90
13982;DHT22;7065;50.880;5.502;2024-01-30T15:46:16;10.30;99.90
13982;DHT22;7065;50.880;5.502;2024-01-30T15:48:42;10.30;99.90
13982;DHT22;7065;50.880;5.502;2024-01-30T15:51:08;10.20;99.90
13982;DHT22;7065;50.880;5.502;2024-01-30T15:53:34;10.20;99.90